Time;durP1;ratioP1;P1;durP2;ratioP2;P2;SDS_P1;SDS_P2;PMS_P1;PMS_P2;Temp;Humidity;BMP_temperature;BMP_pressure;BME280_temperature;BME280_humidity;BME280_pressure;Samples;Min_cycle;Max_cycle;Signal;HPM_P1;HPM_P2
2021/12/17 00:04:25;;;;;;;2.17;1.98;;;;;;;15.71;55.63;97486.53;10453649;28;20128;-78
2021/12/17 00:09:27;;;;;;;2.00;1.80;;;;;;;15.73;55.46;97482.00;10435786;28;20453;-79
2021/12/17 00:14:35;;;;;;;1.83;1.73;;;;;;;15.72;56.12;97476.94;10453520;28;20479;-80
2021/12/17 00:20:00;;;;;;;1.95;1.75;;;;;;;15.71;55.61;97476.09;10453889;28;20045;-81
2021/12/17 00:56:51;;;;;;;2.20;1.75;;;;;;;15.72;55.58;97493.38;10452905;28;20048;-80
2021/12/17 01:01:55;;;;;;;1.65;1.55;;;;;;;15.72;55.37;97487.38;10434190;28;20055;-77
2021/12/17 01:06:57;;;;;;;1.70;1.60;;;;;;;15.71;55.51;97496.94;10438225;28;20383;-80
2021/12/17 01:11:59;;;;;;;1.50;1.40;;;;;;;15.71;55.35;97490.94;10442241;28;20103;-78
2021/12/17 01:17:29;;;;;;;1.70;1.60;;;;;;;15.71;55.51;97476.09;10442337;28;20045;-81
2021/12/17 01:23:10;;;;;;;1.60;1.50;;;;;;;15.72;55.30;97469.13;10459570;28;20053;-78
2021/12/17 01:45:28;;;;;;;1.73;1.60;;;;;;;15.71;54.92;97450.06;10440625;28;20086;-78
2021/12/17 01:56:04;;;;;;;1.60;1.50;;;;;;;15.70;55.00;97440.66;10440272;28;20505;-79
2021/12/17 02:01:06;;;;;;;1.55;1.45;;;;;;;15.70;55.06;97447.63;10440207;28;20049;-81
2021/12/17 02:06:08;;;;;;;1.50;1.40;;;;;;;15.70;54.95;97442.41;10423769;28;20036;-78
2021/12/17 02:32:01;;;;;;;1.40;1.30;;;;;;;15.70;55.21;97421.59;10439086;28;20049;-80
2021/12/17 02:37:06;;;;;;;1.60;1.50;;;;;;;15.70;54.95;97408.56;10418246;28;20601;-77
2021/12/17 02:47:37;;;;;;;1.30;1.20;;;;;;;15.68;55.12;97402.72;10438904;28;20067;-77
2021/12/17 02:52:40;;;;;;;1.83;1.60;;;;;;;15.68;54.81;97393.13;10438409;28;20063;-79
2021/12/17 02:57:42;;;;;;;1.50;1.40;;;;;;;15.69;54.58;97391.34;10438373;28;20045;-77
2021/12/17 03:02:46;;;;;;;1.25;1.20;;;;;;;15.70;54.67;97403.38;10455736;28;20395;-80
2021/12/17 03:07:48;;;;;;;1.52;1.42;;;;;;;15.69;54.49;97404.38;10416255;28;20048;-80
2021/12/17 03:12:55;;;;;;;1.40;1.30;;;;;;;15.68;54.91;97406.13;10438242;28;20410;-79
2021/12/17 03:28:29;;;;;;;1.30;1.20;;;;;;;15.69;54.71;97409.56;10437232;28;20552;-79
2021/12/17 03:33:30;;;;;;;1.20;1.20;;;;;;;15.71;54.48;97418.03;10436675;28;20103;-79
2021/12/17 03:38:32;;;;;;;1.30;1.20;;;;;;;15.67;54.76;97409.72;10454426;28;20548;-80
2021/12/17 03:43:34;;;;;;;1.50;1.40;;;;;;;15.69;54.67;97417.38;10436106;28;20040;-80
2021/12/17 03:48:39;;;;;;;1.30;1.20;;;;;;;15.69;54.60;97412.19;10437284;28;20487;-78
2021/12/17 03:53:44;;;;;;;1.20;1.10;;;;;;;15.70;54.73;97411.19;10436266;28;20037;-77
2021/12/17 03:58:49;;;;;;;1.35;1.27;;;;;;;15.69;54.64;97409.56;10436131;28;20099;-81
2021/12/17 04:03:52;;;;;;;1.50;1.40;;;;;;;15.68;54.56;97411.34;10485665;28;20167;-79
2021/12/17 04:09:00;;;;;;;1.23;1.15;;;;;;;15.68;54.59;97407.94;10493832;28;20044;-77
2021/12/17 04:14:11;;;;;;;1.33;1.23;;;;;;;15.69;54.46;97399.97;10494082;28;20544;-79
2021/12/17 04:19:26;;;;;;;1.08;1.05;;;;;;;15.69;54.32;97393.94;10493468;28;20076;-80
2021/12/17 04:24:27;;;;;;;1.20;1.10;;;;;;;15.67;54.58;97383.69;10494061;28;20398;-80
2021/12/17 04:29:30;;;;;;;1.33;1.23;;;;;;;15.69;54.60;97362.72;10493723;28;20055;-80
2021/12/17 04:34:33;;;;;;;1.35;1.25;;;;;;;15.67;54.44;97362.03;10477002;28;20048;-79
2021/12/17 04:39:36;;;;;;;1.30;1.20;;;;;;;15.67;54.50;97367.25;10489929;28;20135;-77
2021/12/17 04:44:43;;;;;;;1.20;1.20;;;;;;;15.66;54.51;97363.84;10475882;28;20128;-80
2021/12/17 05:00:29;;;;;;;1.23;1.20;;;;;;;15.66;54.50;97358.63;10450556;28;20053;-78
2021/12/17 05:05:41;;;;;;;1.00;1.00;;;;;;;15.66;54.30;97361.22;10405212;28;20053;-80
2021/12/17 05:21:28;;;;;;;1.00;1.00;;;;;;;15.67;54.27;97336.84;10459804;28;20055;-80
2021/12/17 05:26:30;;;;;;;1.10;1.10;;;;;;;15.67;54.44;97343.81;10442118;28;20053;-79
2021/12/17 05:31:33;;;;;;;0.95;0.95;;;;;;;15.66;54.54;97356.03;10441142;28;20041;-79
2021/12/17 05:36:34;;;;;;;0.93;0.93;;;;;;;15.66;54.41;97358.63;10441775;28;20044;-79
2021/12/17 05:41:46;;;;;;;1.00;1.00;;;;;;;15.67;54.09;97354.22;10441185;28;20048;-78
2021/12/17 05:47:06;;;;;;;1.27;1.20;;;;;;;15.67;54.14;97378.50;10440842;28;20072;-79
2021/12/17 05:52:08;;;;;;;0.90;0.90;;;;;;;15.67;54.16;97394.09;10439456;28;20041;-80
2021/12/17 05:57:10;;;;;;;1.00;1.00;;;;;;;15.66;54.41;97391.66;10440477;28;20128;-79
2021/12/17 06:02:16;;;;;;;0.90;0.90;;;;;;;15.66;54.35;97386.44;10440222;28;20545;-79
2021/12/17 06:07:25;;;;;;;0.90;0.90;;;;;;;15.66;54.30;97395.06;10440255;28;20454;-79
2021/12/17 06:12:28;;;;;;;1.00;1.00;;;;;;;15.67;54.06;97411.50;10440431;28;20072;-77
2021/12/17 06:17:31;;;;;;;0.90;0.90;;;;;;;15.66;54.19;97423.69;10440024;28;20213;-77
2021/12/17 06:22:33;;;;;;;0.95;0.90;;;;;;;15.65;53.96;97423.84;10457887;28;20049;-77
2021/12/17 06:27:40;;;;;;;0.73;0.73;;;;;;;15.66;53.96;97420.28;10439952;28;20055;-77
2021/12/17 06:32:43;;;;;;;0.90;0.90;;;;;;;15.65;53.97;97416.84;10439285;28;20103;-80
2021/12/17 06:37:46;;;;;;;0.90;0.90;;;;;;;15.65;53.89;97406.44;10438978;28;20437;-80
2021/12/17 06:42:57;;;;;;;1.00;1.00;;;;;;;15.65;53.61;97419.47;10438142;28;20049;-77
2021/12/17 06:48:01;;;;;;;0.85;0.85;;;;;;;15.65;53.86;97426.47;10438796;28;20079;-79
2021/12/17 07:10:05;;;;;;;0.85;0.85;;;;;;;15.64;53.78;97396.19;10450923;28;20053;-79
2021/12/17 07:41:55;;;;;;;15.27;4.65;;;;;;;15.80;57.16;97409.31;10440824;28;20049;-72
2021/12/17 07:47:12;;;;;;;16.98;4.15;;;;;;;16.17;56.20;97436.78;10449934;28;20037;-72
2021/12/17 07:52:16;;;;;;;15.00;3.95;;;;;;;16.46;55.70;97419.91;10429134;28;20106;-72
2021/12/17 07:57:17;;;;;;;11.82;3.80;;;;;;;16.67;54.78;97428.09;10439031;28;20143;-72
2021/12/17 08:02:19;;;;;;;14.07;3.80;;;;;;;16.88;54.57;97434.66;10432393;28;20494;-71
2021/12/17 08:07:31;;;;;;;13.32;3.17;;;;;;;17.05;53.87;97432.84;10415022;28;20038;-72
2021/12/17 08:12:33;;;;;;;19.30;3.78;;;;;;;17.18;53.78;97438.38;10430866;28;20386;-71
2021/12/17 08:23:47;;;;;;;7.40;3.00;;;;;;;17.39;53.54;97419.59;10453824;28;20045;-71
2021/12/17 08:28:51;;;;;;;9.60;3.20;;;;;;;17.47;53.43;97426.59;10438485;28;20128;-71
2021/12/17 08:33:53;;;;;;;10.32;2.88;;;;;;;17.53;53.21;97417.25;10438472;28;20355;-72
2021/12/17 08:38:55;;;;;;;10.82;3.05;;;;;;;17.58;53.08;97409.75;10441884;28;20106;-71
2021/12/17 08:44:04;;;;;;;8.30;2.80;;;;;;;17.62;52.85;97420.66;10437752;28;20041;-73
2021/12/17 08:49:09;;;;;;;7.63;2.85;;;;;;;17.65;52.77;97422.94;10440481;28;20049;-73
2021/12/17 08:54:40;;;;;;;6.53;3.10;;;;;;;17.67;52.75;97419.16;10435891;28;20056;-73
2021/12/17 08:59:42;;;;;;;6.63;2.95;;;;;;;17.70;52.65;97407.56;10443239;28;20064;-73
2021/12/17 09:04:46;;;;;;;6.57;3.00;;;;;;;17.72;52.80;97413.44;10501664;28;20051;-73
2021/12/17 09:09:50;;;;;;;8.40;3.88;;;;;;;17.73;52.94;97415.88;10495560;28;20048;-73
2021/12/17 09:15:06;;;;;;;9.27;3.10;;;;;;;17.74;52.90;97416.72;10490597;28;20045;-73
2021/12/17 09:20:33;;;;;;;3.85;2.65;;;;;;;17.73;52.85;97408.03;10497072;28;20498;-73
2021/12/17 09:25:35;;;;;;;7.85;3.28;;;;;;;17.73;53.11;97399.41;10494603;28;20041;-73
2021/12/17 09:30:42;;;;;;;9.20;3.27;;;;;;;17.74;53.26;97411.50;10495606;28;20040;-73
2021/12/17 09:35:44;;;;;;;10.18;3.00;;;;;;;17.73;53.29;97396.78;10495476;28;20060;-74
2021/12/17 09:40:46;;;;;;;11.75;2.97;;;;;;;17.73;53.50;97405.44;10495743;28;20056;-73
2021/12/17 09:45:47;;;;;;;5.82;2.72;;;;;;;17.73;53.72;97397.59;10487528;28;20075;-73
2021/12/17 09:50:52;;;;;;;6.60;2.83;;;;;;;17.74;53.73;97403.66;10490999;28;20044;-73
2021/12/17 09:55:53;;;;;;;7.78;3.25;;;;;;;17.73;53.79;97394.19;10495047;28;20029;-73
2021/12/17 10:00:55;;;;;;;11.07;3.25;;;;;;;17.73;53.78;97396.78;10479793;28;20530;-73
2021/12/17 10:05:57;;;;;;;14.82;3.15;;;;;;;17.69;54.01;97401.56;10449822;28;20044;-73
2021/12/17 10:11:03;;;;;;;9.57;3.00;;;;;;;17.69;54.46;97385.03;10453701;28;20044;-73
2021/12/17 10:16:08;;;;;;;10.27;3.20;;;;;;;17.66;54.47;97373.16;10451718;28;20052;-73
2021/12/17 10:21:17;;;;;;;5.45;2.70;;;;;;;17.65;55.01;97365.50;10449522;28;20045;-73
2021/12/17 10:26:21;;;;;;;9.07;3.15;;;;;;;17.64;54.88;97363.84;10447857;28;20102;-73
2021/12/17 10:31:24;;;;;;;8.95;3.47;;;;;;;17.63;55.46;97357.03;10446678;28;20045;-73
2021/12/17 10:36:44;;;;;;;7.60;3.22;;;;;;;17.61;56.16;97362.41;10452488;28;20048;-73
2021/12/17 10:41:48;;;;;;;7.05;3.10;;;;;;;17.59;55.88;97361.75;10453012;28;20486;-73
2021/12/17 10:47:07;;;;;;;5.57;2.88;;;;;;;17.57;56.40;97366.34;10453248;28;20048;-73
2021/12/17 10:52:15;;;;;;;6.43;3.30;;;;;;;17.55;56.30;97374.34;10450626;28;20037;-73
2021/12/17 10:57:16;;;;;;;5.78;3.03;;;;;;;17.54;56.38;97374.50;10452800;28;20399;-72
2021/12/17 11:02:18;;;;;;;3.67;2.63;;;;;;;17.52;56.98;97382.50;10435069;28;20063;-73
2021/12/17 11:07:20;;;;;;;4.93;3.00;;;;;;;17.53;56.83;97380.69;10453368;28;20061;-72
2021/12/17 11:12:32;;;;;;;6.80;2.88;;;;;;;17.51;56.93;97377.44;10451663;28;20056;-77
2021/12/17 11:17:34;;;;;;;5.70;2.97;;;;;;;17.47;56.76;97369.16;10446249;28;20037;-78
2021/12/17 11:22:42;;;;;;;8.90;3.03;;;;;;;17.48;57.40;97369.97;10452895;28;20032;-77
2021/12/17 11:27:44;;;;;;;5.80;3.00;;;;;;;17.47;58.49;97366.53;10453435;28;20045;-74
2021/12/17 11:32:48;;;;;;;11.90;3.25;;;;;;;17.45;57.56;97352.84;10453509;28;20049;-74
2021/12/17 11:37:53;;;;;;;9.50;3.40;;;;;;;17.44;58.25;97339.97;10453320;28;20047;-74
2021/12/17 11:43:35;;;;;;;6.25;3.00;;;;;;;17.43;58.00;97330.50;10453138;28;20049;-73
2021/12/17 11:48:37;;;;;;;4.30;2.92;;;;;;;17.42;58.08;97342.75;10453073;28;20116;-73
2021/12/17 11:53:45;;;;;;;3.85;2.80;;;;;;;17.39;58.29;97346.50;10452032;28;20561;-73
2021/12/17 11:58:53;;;;;;;5.47;3.05;;;;;;;17.39;58.13;97348.31;10452648;28;20048;-74
2021/12/17 12:04:21;;;;;;;6.03;3.05;;;;;;;17.38;58.95;97342.25;10490523;28;20139;-73
2021/12/17 12:10:08;;;;;;;7.53;3.20;;;;;;;17.37;58.70;97348.47;10494050;28;20074;-74
2021/12/17 12:15:27;;;;;;;4.80;3.40;;;;;;;17.37;58.94;97330.19;10493362;28;20049;-73
2021/12/17 12:20:51;;;;;;;12.60;3.40;;;;;;;17.41;59.97;97330.66;10492132;28;20097;-73
2021/12/17 12:26:07;;;;;;;12.13;3.40;;;;;;;17.40;59.26;97342.06;10487973;28;20052;-79
2021/12/17 12:31:09;;;;;;;12.75;3.75;;;;;;;17.43;59.76;97346.16;10474684;28;20517;-79
2021/12/17 12:36:11;;;;;;;11.02;3.92;;;;;;;17.43;58.59;97351.38;10492776;28;20048;-80
2021/12/17 12:41:14;;;;;;;11.90;3.33;;;;;;;17.42;58.88;97358.41;10493296;28;20045;-77
2021/12/17 12:46:52;;;;;;;14.95;3.50;;;;;;;17.41;59.53;97351.53;10492615;28;20433;-77
2021/12/17 12:52:27;;;;;;;6.25;3.42;;;;;;;17.38;59.02;97362.31;10493045;28;20487;-77
2021/12/17 12:57:42;;;;;;;8.75;3.38;;;;;;;17.38;59.46;97357.91;10493255;28;20102;-80
2021/12/17 13:02:47;;;;;;;13.93;3.53;;;;;;;17.36;59.03;97359.06;10496009;28;20052;-79
2021/12/17 13:08:01;;;;;;;9.73;3.13;;;;;;;17.33;59.05;97349.78;10499080;28;20132;-81
2021/12/17 13:23:50;;;;;;;10.30;3.40;;;;;;;17.28;59.00;97362.53;10498504;28;20039;-81
2021/12/17 13:29:00;;;;;;;12.15;3.88;;;;;;;17.25;59.37;97360.25;10478873;28;20052;-80
2021/12/17 13:34:36;;;;;;;8.38;3.05;;;;;;;17.23;59.15;97367.44;10496706;28;20048;-77
2021/12/17 13:39:50;;;;;;;17.55;3.60;;;;;;;17.22;60.82;97368.41;10494952;28;20053;-77
2021/12/17 13:44:59;;;;;;;22.88;3.80;;;;;;;17.28;61.20;97351.28;10491336;28;20044;-75
2021/12/17 13:50:06;;;;;;;41.72;4.47;;;;;;;17.35;62.19;97373.91;10496726;28;20043;-77
2021/12/17 13:55:18;;;;;;;21.45;4.60;;;;;;;17.40;61.96;97381.22;10496586;28;20048;-80
2021/12/17 14:00:23;;;;;;;35.88;4.20;;;;;;;17.44;61.84;97385.16;10481221;28;20049;-78
2021/12/17 14:05:39;;;;;;;28.58;4.50;;;;;;;17.49;61.92;97382.03;10455817;28;20068;-78
2021/12/17 14:10:42;;;;;;;34.80;5.32;;;;;;;17.52;61.94;97402.59;10431204;28;20041;-74
2021/12/17 14:15:45;;;;;;;27.23;4.88;;;;;;;17.54;62.51;97396.19;10450776;28;20075;-75
2021/12/17 14:20:49;;;;;;;20.65;4.28;;;;;;;17.56;62.12;97402.09;10456185;28;20048;-76
2021/12/17 14:25:59;;;;;;;19.90;3.53;;;;;;;17.57;61.61;97395.88;10450641;28;20037;-73
2021/12/17 14:31:04;;;;;;;24.80;4.55;;;;;;;17.59;62.55;97395.69;10454818;28;20406;-75
2021/12/17 14:36:11;;;;;;;19.98;3.70;;;;;;;17.62;62.15;97392.75;10454027;28;20073;-75
2021/12/17 14:41:21;;;;;;;25.65;3.60;;;;;;;17.65;61.78;97383.78;10454798;28;20069;-75
2021/12/17 14:46:25;;;;;;;21.50;4.30;;;;;;;17.68;61.56;97384.25;10436670;28;20139;-74
2021/12/17 15:07:47;;;;;;;22.83;3.65;;;;;;;17.73;62.03;97368.06;10488528;28;20478;-74
2021/12/17 15:12:56;;;;;;;22.42;3.63;;;;;;;17.71;62.04;97370.84;10493890;28;20044;-74
2021/12/17 15:18:02;;;;;;;15.55;3.30;;;;;;;17.71;62.05;97364.81;10493149;28;20040;-75
2021/12/17 15:23:28;;;;;;;17.85;3.50;;;;;;;17.70;62.00;97378.84;10480966;28;20053;-75
2021/12/17 15:28:36;;;;;;;18.77;3.88;;;;;;;17.70;61.71;97384.06;10492305;28;20558;-75
2021/12/17 15:34:00;;;;;;;20.23;3.08;;;;;;;17.68;61.92;97386.84;10492946;28;20040;-75
2021/12/17 15:39:02;;;;;;;18.65;3.22;;;;;;;17.65;62.05;97376.75;10489743;28;20052;-75
2021/12/17 15:44:04;;;;;;;14.68;2.90;;;;;;;17.67;61.86;97373.97;10491719;28;20529;-75
2021/12/17 15:49:06;;;;;;;16.88;2.90;;;;;;;17.66;61.83;97375.78;10493196;28;20411;-75
2021/12/17 15:54:08;;;;;;;17.20;3.28;;;;;;;17.65;61.83;97379.34;10491097;28;20428;-75
2021/12/17 15:59:09;;;;;;;15.55;3.20;;;;;;;17.62;62.00;97369.25;10490209;28;20048;-75
2021/12/17 16:04:11;;;;;;;13.48;3.20;;;;;;;17.62;61.90;97350.97;10492086;28;20055;-75
2021/12/17 16:25:22;;;;;;;14.32;3.03;;;;;;;17.54;62.16;97364.88;10492353;28;20044;-75
2021/12/17 16:30:24;;;;;;;20.60;3.08;;;;;;;17.53;62.38;97365.03;10489683;28;20115;-75
2021/12/17 16:35:25;;;;;;;14.27;2.90;;;;;;;17.52;61.48;97379.91;10493388;28;20417;-75
2021/12/17 16:40:27;;;;;;;21.83;3.25;;;;;;;17.49;61.45;97366.38;10500775;28;20074;-75
2021/12/17 16:45:32;;;;;;;20.75;3.20;;;;;;;17.48;61.54;97368.19;10500193;28;20044;-75
2021/12/17 16:50:33;;;;;;;16.27;3.05;;;;;;;17.46;61.56;97388.41;10501020;28;20390;-75
2021/12/17 16:55:35;;;;;;;29.13;3.17;;;;;;;17.47;61.77;97387.44;10499076;28;20041;-77
2021/12/17 17:00:37;;;;;;;27.30;3.75;;;;;;;17.43;62.22;97391.34;10487067;28;20140;-81
2021/12/17 17:05:39;;;;;;;15.43;3.63;;;;;;;17.47;66.75;97390.03;10454817;28;20049;-79
2021/12/17 17:10:41;;;;;;;15.38;3.85;;;;;;;17.47;65.73;97390.03;10455001;28;20045;-79
2021/12/17 17:15:42;;;;;;;20.05;4.22;;;;;;;17.47;64.35;97390.03;10437019;28;20045;-80
2021/12/17 17:20:44;;;;;;;17.92;3.90;;;;;;;17.45;63.10;97389.41;10450848;28;20072;-80
2021/12/17 17:25:46;;;;;;;18.83;3.55;;;;;;;17.44;62.86;97387.75;10458091;28;20049;-77
2021/12/17 17:30:52;;;;;;;17.05;3.80;;;;;;;17.40;62.45;97379.47;10452062;28;20132;-78
2021/12/17 17:35:54;;;;;;;19.65;4.78;;;;;;;17.40;61.60;97368.19;10459212;28;20052;-78
2021/12/17 17:40:56;;;;;;;15.20;4.50;;;;;;;17.37;61.49;97371.13;10458752;28;20931;-78
2021/12/17 17:45:58;;;;;;;24.00;4.45;;;;;;;17.33;61.30;97372.47;10459002;28;20048;-78
2021/12/17 17:51:05;;;;;;;8.82;4.28;;;;;;;17.29;60.95;97363.31;10442471;28;20037;-78
2021/12/17 17:56:06;;;;;;;19.50;4.38;;;;;;;17.26;60.76;97368.88;10439978;28;20037;-78
2021/12/17 18:01:08;;;;;;;12.98;4.68;;;;;;;17.24;60.39;97376.88;10472956;28;20044;-78
2021/12/17 18:06:14;;;;;;;15.48;3.95;;;;;;;17.22;60.57;97392.69;10499816;28;20409;-78
2021/12/17 18:11:16;;;;;;;9.18;3.90;;;;;;;17.19;60.52;97402.66;10499242;28;20502;-78
2021/12/17 18:16:18;;;;;;;13.00;3.90;;;;;;;17.16;60.07;97411.63;10499336;28;20052;-78
2021/12/17 18:21:19;;;;;;;9.90;4.18;;;;;;;17.15;59.96;97407.41;10497968;28;20041;-78
2021/12/17 18:26:21;;;;;;;9.73;4.05;;;;;;;17.15;60.08;97411.81;10499080;28;20055;-78
2021/12/17 18:31:25;;;;;;;11.32;4.00;;;;;;;17.12;60.02;97407.72;10498948;28;20043;-78
2021/12/17 18:36:26;;;;;;;7.00;3.65;;;;;;;17.11;60.33;97410.50;10498163;28;20406;-78
2021/12/17 18:41:31;;;;;;;9.40;4.35;;;;;;;17.09;59.51;97405.44;10498481;28;20090;-78
2021/12/17 18:46:33;;;;;;;9.30;4.22;;;;;;;17.08;59.97;97389.97;10498211;28;20067;-78
2021/12/17 18:51:35;;;;;;;9.40;4.30;;;;;;;17.06;60.13;97413.59;10498114;28;20098;-79
2021/12/17 18:56:40;;;;;;;8.32;4.30;;;;;;;17.06;60.04;97408.38;10496628;28;20102;-78
2021/12/17 19:01:42;;;;;;;6.18;4.13;;;;;;;17.02;59.93;97400.09;10478144;28;20057;-78
2021/12/17 19:06:50;;;;;;;5.50;4.03;;;;;;;17.01;59.85;97414.09;10456117;28;20045;-78
2021/12/17 19:11:51;;;;;;;6.90;5.18;;;;;;;17.00;59.76;97409.84;10455844;28;20144;-78
2021/12/17 19:16:54;;;;;;;5.35;4.13;;;;;;;16.99;59.38;97407.41;10455483;28;20037;-78
2021/12/17 19:27:00;;;;;;;9.27;4.50;;;;;;;16.99;59.15;97423.88;10454865;28;20045;-78
2021/12/17 19:32:02;;;;;;;6.25;4.35;;;;;;;16.97;59.37;97432.84;10453202;28;20053;-77
2021/12/17 19:37:03;;;;;;;7.72;4.40;;;;;;;16.97;59.15;97430.22;10454618;28;20068;-78
2021/12/17 19:42:08;;;;;;;5.88;4.30;;;;;;;16.94;59.32;97447.03;10454247;28;20372;-77
2021/12/17 19:52:19;;;;;;;5.60;4.60;;;;;;;16.93;58.91;97437.56;10454669;28;20380;-78
2021/12/17 19:57:21;;;;;;;6.60;4.70;;;;;;;16.91;58.80;97431.72;10454520;28;20048;-76
2021/12/17 20:02:24;;;;;;;5.78;4.78;;;;;;;16.90;58.68;97427.47;10479125;28;20581;-77
2021/12/17 20:07:26;;;;;;;7.95;4.63;;;;;;;16.87;59.06;97435.63;10495446;28;20107;-77
2021/12/17 20:12:27;;;;;;;6.47;4.40;;;;;;;16.89;58.72;97438.06;10494797;28;20044;-77
2021/12/17 20:17:29;;;;;;;7.78;4.72;;;;;;;16.87;58.47;97425.19;10495127;28;20036;-77
2021/12/17 20:22:31;;;;;;;7.38;4.93;;;;;;;16.84;58.47;97421.06;10495480;28;20410;-77
2021/12/17 20:27:32;;;;;;;9.77;4.68;;;;;;;16.85;58.73;97416.69;10495012;28;20376;-77
2021/12/17 20:32:34;;;;;;;7.07;4.93;;;;;;;16.83;58.40;97424.66;10494496;28;20036;-74
2021/12/17 20:37:36;;;;;;;12.70;6.32;;;;;;;16.84;58.06;97428.09;10495009;28;20044;-71
2021/12/17 20:47:40;;;;;;;14.40;6.05;;;;;;;16.83;59.25;97416.84;10493770;28;20033;-71
2021/12/17 20:52:42;;;;;;;9.75;5.75;;;;;;;16.86;58.76;97410.50;10492713;28;20044;-71
2021/12/17 20:57:45;;;;;;;11.60;5.20;;;;;;;16.85;58.31;97425.34;10484810;28;20106;-71
2021/12/17 21:02:47;;;;;;;11.70;5.35;;;;;;;16.84;57.49;97420.25;10491101;28;20072;-72
2021/12/17 21:07:49;;;;;;;7.28;4.93;;;;;;;16.83;58.69;97429.06;10492372;28;20131;-71
2021/12/17 21:12:53;;;;;;;11.93;5.20;;;;;;;16.83;58.71;97422.06;10492397;28;20051;-72
2021/12/17 21:17:56;;;;;;;8.25;4.90;;;;;;;16.84;58.68;97428.09;10490941;28;20517;-71
2021/12/17 21:23:02;;;;;;;11.45;5.03;;;;;;;16.83;58.70;97419.47;10494432;28;20461;-71
2021/12/17 21:28:04;;;;;;;10.13;5.30;;;;;;;16.83;58.58;97432.50;10500841;28;20045;-71
2021/12/17 21:33:06;;;;;;;8.55;4.80;;;;;;;16.83;58.49;97435.09;10500194;28;20036;-72
2021/12/17 21:38:08;;;;;;;9.73;4.60;;;;;;;16.80;58.76;97438.03;10498586;28;20048;-72
2021/12/17 21:43:11;;;;;;;10.25;4.28;;;;;;;16.81;58.46;97441.44;10498421;28;20056;-71
2021/12/17 21:48:16;;;;;;;8.57;4.40;;;;;;;16.81;58.55;97450.09;10493876;28;20474;-72
2021/12/17 21:53:18;;;;;;;7.07;4.55;;;;;;;16.80;58.29;97452.88;10499919;28;20393;-72
2021/12/17 21:58:20;;;;;;;8.63;4.60;;;;;;;16.81;58.38;97457.94;10498256;28;20040;-71
2021/12/17 22:03:24;;;;;;;8.00;4.50;;;;;;;16.80;58.44;97451.06;10499089;28;20418;-72
2021/12/17 22:08:28;;;;;;;15.15;4.88;;;;;;;16.80;58.51;97448.47;10500065;28;20482;-71
2021/12/17 22:13:30;;;;;;;8.25;5.10;;;;;;;16.80;58.44;97456.28;10499241;28;20063;-72
2021/12/17 22:18:41;;;;;;;8.45;4.47;;;;;;;16.81;57.80;97455.31;10498819;28;20049;-72
2021/12/17 22:23:44;;;;;;;6.88;4.80;;;;;;;16.80;58.41;97453.69;10498588;28;20052;-71
2021/12/17 22:28:46;;;;;;;6.18;4.43;;;;;;;16.81;57.84;97444.88;10499036;28;20445;-71
2021/12/17 22:33:47;;;;;;;6.78;4.55;;;;;;;16.79;58.27;97446.03;10497534;28;20367;-72
2021/12/17 22:38:53;;;;;;;7.35;5.03;;;;;;;16.78;58.59;97445.22;10498306;28;20052;-71
2021/12/17 22:43:57;;;;;;;6.57;4.45;;;;;;;16.78;58.37;97441.78;10497737;28;20090;-71
2021/12/17 22:48:59;;;;;;;7.32;4.82;;;;;;;16.77;58.28;97435.75;10497866;28;20033;-72
2021/12/17 22:54:01;;;;;;;7.70;5.05;;;;;;;16.78;58.47;97445.22;10495526;28;20045;-72
2021/12/17 22:59:03;;;;;;;6.32;4.90;;;;;;;16.77;58.36;97450.59;10497025;28;20049;-73
2021/12/17 23:04:17;;;;;;;9.27;4.70;;;;;;;16.75;58.54;97448.16;10495993;28;20540;-72
2021/12/17 23:09:26;;;;;;;6.90;4.88;;;;;;;16.75;58.54;97455.97;10490564;28;20050;-72
2021/12/17 23:14:41;;;;;;;6.80;5.28;;;;;;;16.76;58.47;97454.97;10496865;28;20048;-72
2021/12/17 23:19:47;;;;;;;6.07;4.78;;;;;;;16.75;58.36;97461.19;10495112;28;20045;-72
2021/12/17 23:24:49;;;;;;;7.80;5.00;;;;;;;16.72;58.55;97448.47;10496233;28;20478;-72
2021/12/17 23:29:51;;;;;;;9.10;5.20;;;;;;;16.74;58.08;97448.31;10496512;28;20044;-72
2021/12/17 23:34:53;;;;;;;7.47;5.25;;;;;;;16.74;58.25;97443.91;10495905;28;20079;-72
2021/12/17 23:39:55;;;;;;;5.95;4.68;;;;;;;16.74;58.35;97437.88;10495810;28;20041;-71
2021/12/17 23:44:57;;;;;;;7.13;5.50;;;;;;;16.72;58.17;97424.16;10492601;28;20036;-72
2021/12/17 23:49:59;;;;;;;7.20;5.13;;;;;;;16.72;57.88;97414.56;10495815;28;20102;-72
2021/12/17 23:55:01;;;;;;;6.85;5.28;;;;;;;16.71;57.90;97401.69;10495469;28;20097;-72
